createdAt,value
2018-12-17T00:01:24.857Z,10.43
2018-12-17T00:03:51.935Z,11.80
2018-12-17T00:06:18.903Z,10.72
2018-12-17T00:08:45.874Z,12.45
2018-12-17T00:11:12.934Z,12.15
2018-12-17T00:13:39.703Z,11.75
2018-12-17T00:16:06.766Z,10.95
2018-12-17T00:18:33.882Z,12.20
2018-12-17T00:21:01.015Z,12.25
2018-12-17T00:23:28.493Z,11.55
2018-12-17T00:25:56.563Z,11.45
2018-12-17T00:28:23.580Z,11.53
2018-12-17T00:30:50.514Z,13.00
2018-12-17T00:33:17.709Z,12.10
2018-12-17T00:35:44.830Z,12.40
2018-12-17T00:38:12.058Z,11.78
2018-12-17T00:40:39.304Z,11.73
2018-12-17T00:43:06.858Z,12.45
2018-12-17T00:45:34.153Z,11.48
2018-12-17T00:48:01.210Z,11.80
2018-12-17T00:50:28.276Z,12.43
2018-12-17T00:52:55.633Z,12.40
2018-12-17T00:55:22.650Z,11.63
2018-12-17T00:57:49.741Z,12.53
2018-12-17T01:00:16.669Z,12.88
2018-12-17T01:02:44.085Z,11.53
2018-12-17T01:05:11.020Z,11.33
2018-12-17T01:07:38.488Z,10.78
2018-12-17T01:10:05.397Z,12.05
2018-12-17T01:12:32.322Z,10.35
2018-12-17T01:15:00.629Z,12.53
2018-12-17T01:17:27.932Z,10.20
2018-12-17T01:19:55.065Z,9.60
2018-12-17T01:22:22.143Z,10.68
2018-12-17T01:24:49.311Z,11.28
2018-12-17T01:27:19.760Z,11.80
2018-12-17T01:29:47.844Z,10.28
2018-12-17T01:32:15.188Z,10.58
2018-12-17T01:34:42.226Z,11.08
2018-12-17T01:37:09.331Z,11.40
2018-12-17T01:39:39.845Z,11.18
2018-12-17T01:42:07.684Z,11.15
2018-12-17T01:44:37.635Z,10.63
2018-12-17T01:47:07.714Z,9.20
2018-12-17T01:49:35.767Z,11.38
2018-12-17T01:54:39.122Z,9.43
2018-12-17T01:57:07.409Z,10.72
2018-12-17T01:59:38.087Z,10.80
2018-12-17T02:02:09.650Z,10.25
2018-12-17T02:04:37.292Z,9.33
2018-12-17T02:07:04.383Z,9.30
2018-12-17T02:09:32.601Z,9.50
2018-12-17T02:12:03.003Z,8.98
2018-12-17T02:14:30.216Z,10.18
2018-12-17T02:16:58.408Z,10.90
2018-12-17T02:19:26.096Z,9.60
2018-12-17T02:21:54.013Z,9.53
2018-12-17T02:24:21.688Z,9.38
2018-12-17T02:26:49.567Z,9.08
2018-12-17T02:29:21.642Z,8.60
2018-12-17T02:31:51.251Z,9.48
2018-12-17T02:34:19.665Z,9.23
2018-12-17T02:36:47.847Z,10.13
2018-12-17T02:39:15.731Z,9.95
2018-12-17T02:41:50.368Z,9.60
2018-12-17T02:44:18.699Z,7.75
2018-12-17T02:49:22.297Z,10.10
2018-12-17T02:51:52.194Z,9.63
2018-12-17T02:54:19.867Z,9.20
2018-12-17T03:01:52.639Z,8.55
2018-12-17T03:20:45.348Z,8.95
2018-12-17T03:23:13.021Z,9.25
2018-12-17T03:25:45.249Z,8.40
2018-12-17T03:28:15.282Z,8.38
2018-12-17T03:30:47.309Z,9.25
2018-12-17T04:24:35.830Z,8.25
2018-12-17T04:29:39.151Z,8.10
2018-12-17T04:32:15.739Z,9.20
2018-12-17T04:37:16.294Z,8.85
2018-12-17T04:39:43.727Z,8.73
2018-12-17T04:42:12.140Z,8.40
2018-12-17T04:49:44.135Z,8.50
2018-12-17T04:52:12.691Z,8.80
2018-12-17T04:58:04.370Z,8.25
2018-12-17T05:00:32.368Z,6.95
2018-12-17T05:05:32.299Z,8.35
2018-12-17T05:13:05.681Z,7.60
2018-12-17T05:15:34.087Z,7.42
2018-12-17T05:18:04.324Z,7.50
2018-12-17T05:20:31.733Z,7.75
2018-12-17T05:25:32.620Z,9.75
2018-12-17T05:30:33.330Z,8.68
2018-12-17T05:33:03.497Z,9.05
2018-12-17T05:35:31.526Z,8.05
2018-12-17T05:38:01.395Z,8.35
2018-12-17T05:48:09.255Z,9.70
2018-12-17T05:50:42.764Z,8.43
2018-12-17T06:03:25.820Z,9.00
2018-12-17T06:05:53.425Z,9.20
2018-12-17T06:08:24.449Z,9.13
2018-12-17T06:10:51.601Z,10.93
2018-12-17T06:13:24.365Z,10.05
2018-12-17T06:15:52.583Z,10.65
2018-12-17T06:43:43.776Z,10.23
2018-12-17T06:48:43.771Z,9.85
2018-12-17T06:53:44.785Z,9.13
2018-12-17T06:56:14.152Z,10.40
2018-12-17T06:58:45.311Z,11.00
2018-12-17T07:01:13.555Z,8.93
2018-12-17T07:03:45.014Z,10.10
2018-12-17T07:06:13.373Z,9.58
2018-12-17T07:08:47.114Z,9.65
2018-12-17T07:29:07.891Z,12.20
2018-12-17T07:31:36.698Z,11.00
2018-12-17T07:34:04.932Z,11.57
2018-12-17T07:36:32.524Z,11.70
2018-12-17T07:39:01.446Z,12.33
2018-12-17T07:41:28.543Z,12.85
2018-12-17T07:43:56.435Z,12.03
2018-12-17T07:46:23.394Z,12.73
2018-12-17T07:48:50.218Z,12.13
2018-12-17T07:51:17.252Z,11.28
2018-12-17T07:53:44.146Z,13.22
2018-12-17T07:56:11.113Z,11.22
2018-12-17T07:58:38.178Z,10.88
2018-12-17T08:01:05.162Z,10.20
2018-12-17T08:03:32.041Z,10.65
2018-12-17T08:05:58.792Z,10.15
2018-12-17T08:08:25.557Z,11.45
2018-12-17T08:10:52.416Z,10.13
2018-12-17T08:13:19.068Z,10.60
2018-12-17T08:15:45.929Z,10.70
2018-12-17T08:18:12.913Z,11.35
2018-12-17T08:20:39.875Z,11.85
2018-12-17T08:23:06.839Z,12.15
2018-12-17T08:25:33.707Z,11.15
2018-12-17T08:28:00.462Z,13.13
2018-12-17T08:30:27.333Z,11.43
2018-12-17T08:32:54.089Z,12.00
2018-12-17T08:35:20.948Z,11.25
2018-12-17T08:37:47.824Z,11.43
2018-12-17T08:40:14.896Z,11.43
2018-12-17T08:42:41.748Z,11.30
2018-12-17T08:45:08.828Z,12.15
2018-12-17T08:47:35.796Z,12.58
2018-12-17T08:50:02.672Z,13.58
2018-12-17T08:52:29.412Z,11.03
2018-12-17T08:54:56.393Z,11.08
2018-12-17T08:57:23.159Z,10.78
2018-12-17T08:59:50.019Z,10.35
2018-12-17T09:02:16.887Z,11.20
2018-12-17T09:04:43.835Z,10.90
2018-12-17T09:07:12.204Z,12.55
2018-12-17T09:09:40.052Z,11.80
2018-12-17T09:12:07.428Z,11.10
2018-12-17T09:14:39.992Z,11.03
2018-12-17T09:17:07.905Z,10.05
2018-12-17T09:19:36.049Z,9.83
2018-12-17T09:22:04.468Z,11.73
2018-12-17T09:24:32.210Z,10.63
2018-12-17T09:27:04.208Z,9.93
2018-12-17T09:29:31.435Z,12.37
2018-12-17T09:31:58.658Z,11.57
2018-12-17T09:34:26.068Z,11.48
2018-12-17T09:36:53.417Z,11.08
2018-12-17T09:39:20.700Z,12.10
2018-12-17T09:41:49.414Z,11.53
2018-12-17T09:44:18.855Z,11.12
2018-12-17T09:46:47.279Z,12.03
2018-12-17T09:49:14.806Z,12.45
2018-12-17T09:51:42.079Z,11.05
2018-12-17T09:54:09.474Z,12.93
2018-12-17T09:56:37.408Z,10.85
2018-12-17T09:59:04.672Z,12.75
2018-12-17T10:01:32.547Z,11.10
2018-12-17T10:03:59.591Z,12.37
2018-12-17T10:06:27.605Z,11.35
2018-12-17T10:08:55.274Z,8.18
2018-12-17T10:11:23.237Z,8.48
2018-12-17T10:16:23.577Z,7.97
2018-12-17T10:18:50.806Z,8.53
2018-12-17T10:21:20.365Z,8.58
2018-12-17T10:23:47.493Z,7.97
2018-12-17T10:28:49.391Z,9.13
2018-12-17T10:31:17.485Z,9.48
2018-12-17T10:33:44.702Z,9.58
2018-12-17T10:36:12.142Z,7.47
2018-12-17T10:38:41.057Z,10.70
2018-12-17T10:41:08.747Z,11.05
2018-12-17T10:43:37.080Z,10.72
2018-12-17T10:46:04.452Z,9.60
2018-12-17T10:48:31.466Z,10.43
2018-12-17T10:50:59.050Z,10.70
2018-12-17T10:53:26.956Z,9.98
2018-12-17T10:55:54.390Z,10.23
2018-12-17T10:58:21.821Z,10.65
2018-12-17T11:00:49.633Z,10.18
2018-12-17T11:03:16.758Z,11.25
2018-12-17T11:05:43.937Z,11.70
2018-12-17T11:08:11.576Z,12.00
2018-12-17T11:10:39.016Z,10.45
2018-12-17T11:13:08.832Z,13.10
2018-12-17T11:15:40.221Z,11.43
2018-12-17T11:18:08.667Z,12.28
2018-12-17T11:20:36.053Z,12.40
2018-12-17T11:23:03.198Z,10.58
2018-12-17T11:25:31.390Z,9.60
2018-12-17T11:27:58.299Z,10.58
2018-12-17T11:30:25.481Z,12.37
2018-12-17T11:32:52.601Z,10.05
2018-12-17T11:35:19.916Z,13.25
2018-12-17T11:37:47.104Z,10.30
2018-12-17T11:40:14.163Z,10.20
2018-12-17T11:42:41.029Z,11.80
2018-12-17T11:45:07.905Z,9.88
2018-12-17T11:47:34.558Z,11.90
2018-12-17T11:50:01.724Z,11.60
2018-12-17T11:52:28.688Z,12.18
2018-12-17T11:54:55.557Z,12.98
2018-12-17T11:57:22.534Z,13.72
2018-12-17T11:59:49.387Z,14.70
2018-12-17T12:02:16.254Z,12.15
2018-12-17T12:04:43.114Z,11.63
2018-12-17T12:07:09.988Z,11.75
2018-12-17T12:09:36.741Z,12.80
2018-12-17T12:12:04.177Z,11.20
2018-12-17T12:14:31.073Z,11.22
2018-12-17T12:16:58.290Z,12.25
2018-12-17T12:19:25.109Z,11.20
2018-12-17T12:21:52.220Z,11.18
2018-12-17T12:24:19.238Z,11.20
2018-12-17T12:26:46.486Z,11.63
2018-12-17T12:29:13.400Z,10.80
2018-12-17T12:31:40.605Z,13.18
2018-12-17T12:34:07.571Z,10.70
2018-12-17T12:36:34.683Z,10.10
2018-12-17T12:39:01.781Z,11.97
2018-12-17T12:41:29.569Z,11.60
2018-12-17T12:43:56.735Z,11.28
2018-12-17T12:46:24.196Z,10.95
2018-12-17T12:48:51.482Z,11.25
2018-12-17T12:51:18.764Z,10.98
2018-12-17T12:53:47.562Z,10.72
2018-12-17T12:56:14.726Z,11.43
2018-12-17T12:58:41.504Z,11.38
2018-12-17T13:01:08.625Z,11.25
2018-12-17T13:03:35.985Z,10.68
2018-12-17T13:06:03.224Z,10.35
2018-12-17T13:08:30.184Z,11.03
2018-12-17T13:10:57.464Z,10.80
2018-12-17T13:13:24.445Z,10.65
2018-12-17T13:15:52.925Z,11.20
2018-12-17T13:18:20.306Z,10.30
2018-12-17T13:20:47.745Z,10.78
2018-12-17T13:23:15.005Z,10.65
2018-12-17T13:25:42.325Z,11.15
2018-12-17T13:28:09.006Z,10.28
2018-12-17T13:30:36.306Z,10.72
2018-12-17T13:33:04.607Z,10.00
2018-12-17T13:35:31.636Z,11.15
2018-12-17T13:37:58.938Z,11.43
2018-12-17T13:40:25.816Z,11.18
2018-12-17T13:42:53.050Z,10.70
2018-12-17T13:45:20.144Z,10.38
2018-12-17T13:47:47.065Z,12.18
2018-12-17T13:50:14.294Z,10.68
2018-12-17T13:52:41.624Z,10.18
2018-12-17T13:55:08.589Z,11.00
2018-12-17T13:57:35.765Z,12.68
2018-12-17T14:00:02.945Z,9.95
2018-12-17T14:02:29.765Z,10.25
2018-12-17T14:04:57.085Z,10.63
2018-12-17T14:07:24.145Z,9.88
2018-12-17T14:09:51.345Z,9.15
2018-12-17T14:12:18.920Z,9.90
2018-12-17T14:14:46.146Z,9.88
2018-12-17T14:17:13.445Z,10.38
2018-12-17T14:19:40.521Z,9.30
2018-12-17T14:22:07.403Z,11.48
2018-12-17T14:24:34.548Z,11.08
2018-12-17T14:27:02.097Z,11.12
2018-12-17T14:29:29.385Z,9.43
2018-12-17T14:31:56.274Z,11.10
2018-12-17T14:34:23.566Z,11.28
2018-12-17T14:36:50.377Z,10.00
2018-12-17T14:39:17.965Z,9.38
2018-12-17T14:41:44.863Z,9.55
2018-12-17T14:44:12.222Z,10.18
2018-12-17T14:46:39.411Z,11.40
2018-12-17T14:49:06.536Z,9.75
2018-12-17T14:51:34.047Z,10.88
2018-12-17T14:54:02.117Z,10.82
2018-12-17T14:56:32.438Z,12.93
2018-12-17T14:59:00.617Z,11.63
2018-12-17T15:01:27.838Z,12.20
2018-12-17T15:03:55.119Z,10.45
2018-12-17T15:06:22.497Z,12.00
2018-12-17T15:08:49.824Z,11.15
2018-12-17T15:11:16.847Z,13.50
2018-12-17T15:13:44.649Z,11.60
2018-12-17T15:16:12.664Z,14.25
2018-12-17T15:56:46.546Z,11.68
2018-12-17T15:59:13.416Z,11.28
2018-12-17T16:01:40.499Z,12.05
2018-12-17T16:04:07.420Z,12.13
2018-12-17T16:06:34.383Z,11.35
2018-12-17T16:09:01.971Z,10.68
2018-12-17T16:11:28.748Z,10.18
2018-12-17T16:13:55.911Z,11.68
2018-12-17T16:16:23.327Z,11.03
2018-12-17T16:18:50.568Z,10.10
2018-12-17T16:21:17.332Z,10.55
2018-12-17T16:23:44.198Z,11.28
2018-12-17T16:26:11.058Z,11.20
2018-12-17T16:28:38.038Z,11.10
2018-12-17T16:31:04.898Z,11.18
2018-12-17T16:33:31.757Z,10.43
2018-12-17T16:35:58.504Z,10.80
2018-12-17T16:38:25.277Z,11.60
2018-12-17T16:40:52.158Z,12.55
2018-12-17T16:43:18.919Z,12.20
2018-12-17T16:45:45.677Z,11.80
2018-12-17T16:48:12.437Z,12.13
2018-12-17T16:50:39.211Z,10.65
2018-12-17T16:53:05.953Z,11.40
2018-12-17T16:55:32.814Z,10.65
2018-12-17T16:57:59.680Z,10.45
2018-12-17T17:00:26.445Z,11.60
2018-12-17T17:02:53.319Z,10.28
2018-12-17T17:05:20.079Z,9.55
2018-12-17T17:07:46.739Z,10.80
2018-12-17T17:10:13.500Z,11.60
2018-12-17T17:12:41.599Z,11.95
2018-12-17T17:15:08.761Z,10.30
2018-12-17T17:17:35.642Z,11.38
2018-12-17T17:20:02.382Z,11.30
2018-12-17T17:22:29.263Z,10.38
2018-12-17T17:24:56.022Z,10.32
2018-12-17T17:27:22.890Z,11.00
2018-12-17T17:29:49.743Z,11.12
2018-12-17T17:32:16.620Z,10.82
2018-12-17T17:34:43.381Z,10.98
2018-12-17T17:37:10.243Z,11.53
2018-12-17T17:39:37.000Z,10.85
2018-12-17T17:42:03.881Z,11.00
2018-12-17T17:44:30.837Z,10.50
2018-12-17T17:46:57.596Z,11.83
2018-12-17T17:49:24.476Z,11.78
2018-12-17T17:51:51.439Z,12.30
2018-12-17T17:54:18.195Z,11.10
2018-12-17T17:56:44.956Z,11.10
2018-12-17T17:59:11.717Z,12.43
2018-12-17T18:01:38.476Z,12.13
2018-12-17T18:04:05.336Z,10.88
2018-12-17T18:06:32.120Z,12.10
2018-12-17T18:08:58.986Z,12.75
2018-12-17T18:11:25.741Z,12.47
2018-12-17T18:13:52.596Z,11.65
2018-12-17T18:16:19.356Z,11.73
2018-12-17T18:18:46.336Z,11.83
2018-12-17T18:21:13.097Z,11.57
2018-12-17T18:23:41.176Z,12.90
2018-12-17T18:26:07.956Z,11.35
2018-12-17T18:28:34.816Z,11.38
2018-12-17T18:31:01.578Z,13.95
2018-12-17T18:33:28.339Z,12.25
2018-12-17T18:35:55.098Z,12.37
2018-12-17T18:38:21.978Z,12.13
2018-12-17T18:40:48.839Z,14.40
2018-12-17T18:43:16.138Z,13.18
2018-12-17T18:45:43.077Z,12.47
2018-12-17T18:48:09.938Z,13.38
2018-12-17T18:50:36.781Z,13.75
2018-12-17T18:53:03.667Z,11.60
2018-12-17T18:55:30.429Z,12.07
2018-12-17T18:57:57.187Z,13.20
2018-12-17T19:00:23.847Z,12.75
2018-12-17T19:02:50.607Z,12.70
2018-12-17T19:05:17.387Z,13.75
2018-12-17T19:07:44.147Z,14.75
2018-12-17T19:10:10.867Z,14.63
2018-12-17T19:12:37.767Z,14.78
2018-12-17T19:15:04.684Z,13.83
2018-12-17T19:17:31.442Z,14.85
2018-12-17T19:19:58.263Z,15.70
2018-12-17T19:22:25.024Z,13.08
2018-12-17T19:24:51.983Z,12.80
2018-12-17T19:27:18.783Z,14.35
2018-12-17T19:29:45.635Z,14.13
2018-12-17T19:32:12.434Z,13.83
2018-12-17T19:34:39.855Z,14.85
2018-12-17T19:37:06.735Z,14.63
2018-12-17T19:39:33.596Z,13.83
2018-12-17T19:42:00.355Z,11.40
2018-12-17T19:44:27.299Z,15.15
2018-12-17T19:46:54.275Z,14.15
2018-12-17T19:49:21.131Z,14.00
2018-12-17T19:51:47.920Z,12.18
2018-12-17T19:54:15.089Z,12.55
2018-12-17T19:56:42.362Z,13.45
2018-12-17T19:59:09.381Z,16.65
2018-12-17T20:01:36.301Z,16.57
2018-12-17T20:04:03.266Z,12.82
2018-12-17T20:06:30.406Z,12.90
2018-12-17T20:08:57.300Z,12.70
2018-12-17T20:11:24.289Z,13.32
2018-12-17T20:13:51.335Z,14.60
2018-12-17T20:16:18.130Z,14.10
2018-12-17T20:18:45.051Z,13.78
2018-12-17T20:21:11.712Z,13.10
2018-12-17T20:23:38.580Z,14.33
2018-12-17T20:26:05.544Z,14.43
2018-12-17T20:28:32.384Z,13.62
2018-12-17T20:30:59.363Z,14.80
2018-12-17T20:33:26.451Z,13.05
2018-12-17T20:35:54.931Z,13.00
2018-12-17T20:38:23.053Z,11.38
2018-12-17T20:40:55.717Z,13.48
2018-12-17T20:43:23.528Z,13.28
2018-12-17T20:45:51.507Z,11.85
2018-12-17T20:48:18.588Z,12.30
2018-12-17T20:50:50.047Z,11.48
2018-12-17T20:53:19.201Z,11.45
2018-12-17T20:55:48.273Z,13.05
2018-12-17T20:58:15.486Z,11.48
2018-12-17T21:00:43.379Z,11.95
2018-12-17T21:03:18.800Z,14.10
2018-12-17T21:05:46.295Z,13.08
2018-12-17T21:08:13.901Z,12.95
2018-12-17T21:25:57.820Z,12.63
2018-12-17T21:28:25.278Z,11.60
2018-12-17T21:31:05.776Z,14.43
2018-12-17T21:33:32.682Z,13.43
2018-12-17T21:36:00.220Z,12.90
2018-12-17T21:38:31.280Z,11.55
2018-12-17T21:43:36.010Z,12.28
2018-12-17T21:46:08.424Z,10.88
2018-12-17T21:48:35.503Z,13.10
2018-12-17T21:58:41.732Z,10.60
2018-12-17T22:01:09.686Z,10.53
2018-12-17T22:03:41.209Z,11.22
2018-12-17T22:06:09.624Z,10.23
2018-12-17T22:08:39.070Z,9.45
2018-12-17T22:13:40.951Z,10.30
2018-12-17T22:23:46.706Z,9.25
2018-12-17T22:33:52.477Z,11.57
2018-12-17T22:38:57.806Z,9.40
2018-12-17T22:41:25.884Z,9.83
2018-12-17T22:43:53.277Z,10.78
2018-12-17T22:46:26.647Z,9.75
2018-12-17T22:48:53.979Z,9.83
2018-12-17T22:51:21.246Z,10.75
2018-12-17T22:53:52.180Z,10.45
2018-12-17T23:01:26.277Z,12.05
2018-12-17T23:03:53.860Z,12.20
2018-12-17T23:14:00.620Z,11.10
2018-12-17T23:16:29.158Z,10.35
2018-12-17T23:18:56.769Z,11.93
2018-12-17T23:21:28.389Z,9.43
2018-12-17T23:24:00.056Z,11.78
2018-12-17T23:29:04.235Z,9.95
2018-12-17T23:31:32.999Z,10.65
2018-12-17T23:34:02.605Z,10.03
2018-12-17T23:46:43.478Z,9.53
2018-12-17T23:49:12.040Z,10.78
2018-12-17T23:51:48.539Z,9.93
2018-12-17T23:59:24.500Z,10.28
